TNCM

Princess Juliana International Airport

Philipsburg, , Netherlands Antilles
TNCM 181138Z 1812/1912 10003KT P6SM VCSH FEW018 SCT030 FM181400 13012KT P6SM SCT022 FM182300 09008KT P6SM VCSH FEW018 SCT030
Issued Valid From Valid To
Jun-18 @ 11:38 UTC
(2 hours ago)
Jun-18 @ 12:00 UTC
(an hour ago)
Jun-19 @ 12:00 UTC
(in 23 hours)
Jun-18 @ 12:00 to Jun-18 @ 14:00
TNCM 181138Z 1812/1912 10003KT P6SM VCSH FEW018 SCT030
Wind Visibility Clouds
100° at 3 knots 10,000+ meters
  • Few at 1,800' AGL
  • Scattered at 3,000' AGL
From Jun-18 @ 14:00 to Jun-18 @ 23:00
FM181400 13012KT P6SM SCT022
Wind Visibility Clouds
130° at 12 knots 10,000+ meters
  • Scattered at 2,200' AGL
From Jun-18 @ 23:00 to Jun-19 @ 12:00
FM182300 09008KT P6SM VCSH FEW018 SCT030
Wind Visibility Clouds
90° at 8 knots 10,000+ meters
  • Few at 1,800' AGL
  • Scattered at 3,000' AGL
TNCM 181138Z 1812/1912 10003KT P6SM VCSH FEW018 SCT030 FM181400 13012KT P6SM SCT022 FM182300 09008KT P6SM VCSH FEW018 SCT030
Issued Jun-18 @ 11:38 UTC
(2 hours ago)
Valid From Jun-18 @ 12:00 UTC
(an hour ago)
Valid To Jun-19 @ 12:00 UTC
(in 23 hours)
Jun-18 @ 12:00 - Jun-18 @ 14:00
Wind Visibility
100° at 3 knots 10,000+ meters
Clouds
  • Few at 1,800' AGL
  • Scattered at 3,000' AGL
From Jun-18 @ 14:00 - Jun-18 @ 23:00
Wind Visibility
130° at 12 knots 10,000+ meters
Clouds
  • Scattered at 2,200' AGL
From Jun-18 @ 23:00 - Jun-19 @ 12:00
Wind Visibility
90° at 8 knots 10,000+ meters
Clouds
  • Few at 1,800' AGL
  • Scattered at 3,000' AGL